createdAt,value
2017-07-07T14:44:09.831Z,37.05
2017-07-07T14:45:09.423Z,37.05
2017-07-07T14:46:08.742Z,37.94
2017-07-07T14:47:09.084Z,37.73
2017-07-07T14:48:09.079Z,37.52
2017-07-07T14:49:08.763Z,37.63
2017-07-07T14:50:09.565Z,38.6
2017-07-07T14:51:09.112Z,38.8
2017-07-07T14:52:09.107Z,38.6
2017-07-07T14:53:08.805Z,38.59
2017-07-07T14:54:09.116Z,39.07
2017-07-07T14:55:09.462Z,38.59
2017-07-07T14:56:09.129Z,38.98
2017-07-07T14:57:08.815Z,38.98
2017-07-07T14:58:09.145Z,39.27
2017-07-07T14:59:09.270Z,37.82
2017-07-07T15:00:09.649Z,37.81
2017-07-07T15:01:08.854Z,38.49
2017-07-07T15:02:08.853Z,39.35
2017-07-07T15:03:09.183Z,39.35
2017-07-07T15:04:08.893Z,39.64
2017-07-07T15:05:09.260Z,39.74
2017-07-07T15:06:08.978Z,40.03
2017-07-07T15:07:09.215Z,39.94
2017-07-07T15:08:08.904Z,39.94
2017-07-07T15:09:08.910Z,39.94
2017-07-07T15:10:09.300Z,40.03
2017-07-07T15:11:09.250Z,39.96
2017-07-07T15:12:08.936Z,39.27
2017-07-07T15:13:08.941Z,39.66
2017-07-07T15:14:09.284Z,40.25
2017-07-07T15:15:09.660Z,39.86
2017-07-07T15:16:09.290Z,40.25
2017-07-07T15:17:09.301Z,39.27
2017-07-07T15:18:08.982Z,39.19
2017-07-07T15:19:08.999Z,39.19
2017-07-07T15:20:09.496Z,39
2017-07-07T15:21:09.006Z,37.73
2017-07-07T15:22:09.017Z,37.92
2017-07-07T15:23:09.025Z,38.02
2017-07-07T15:24:09.380Z,38.8
2017-07-07T15:25:09.810Z,38.51
2017-07-07T15:26:09.376Z,38.8
2017-07-07T15:27:09.063Z,36.84
2017-07-07T15:28:09.403Z,36.27
2017-07-07T15:29:09.397Z,36.55
2017-07-07T15:30:09.841Z,36.65
2017-07-07T15:31:09.413Z,35.39
2017-07-07T15:32:09.425Z,35.1
2017-07-07T15:33:09.249Z,35
2017-07-07T15:34:09.431Z,35.49
2017-07-07T15:35:09.771Z,35.1
2017-07-07T15:36:09.455Z,35.29
2017-07-07T15:37:09.463Z,35
2017-07-07T15:38:09.153Z,36.08
2017-07-07T15:39:09.479Z,35.21
2017-07-07T15:40:09.935Z,35.31
2017-07-07T15:41:09.496Z,34.62
2017-07-07T15:42:09.506Z,34.92
2017-07-07T15:43:09.191Z,35.21
2017-07-07T15:44:09.201Z,35.19
2017-07-07T15:45:09.664Z,35.39
2017-07-07T15:46:09.234Z,36.25
2017-07-07T15:47:09.233Z,36.45
2017-07-07T15:48:09.559Z,36.74
2017-07-07T15:49:09.561Z,36.82
2017-07-07T15:50:10.036Z,37.12
2017-07-07T15:51:09.259Z,37.71
2017-07-07T15:52:09.602Z,37.81
2017-07-07T15:53:09.277Z,37.79
2017-07-07T15:54:09.285Z,38
2017-07-07T15:55:10.037Z,37.61
2017-07-07T15:56:09.623Z,37.31
2017-07-07T15:57:09.316Z,37.39
2017-07-07T15:58:09.639Z,37.39
2017-07-07T15:59:09.644Z,37.79
2017-07-07T16:00:15.385Z,37.88
2017-07-07T16:01:09.342Z,37.88
2017-07-07T16:02:09.350Z,39.54
2017-07-07T16:03:09.678Z,41.5
2017-07-07T16:04:09.685Z,42.27
2017-07-07T16:05:09.870Z,42.74
2017-07-07T16:06:09.709Z,43.32
2017-07-07T16:07:09.713Z,44.09
2017-07-07T16:08:09.396Z,44.28
2017-07-07T16:09:09.723Z,44.67
2017-07-07T16:10:10.259Z,44.67
2017-07-07T16:11:09.737Z,45.55
2017-07-07T16:12:09.425Z,45.36
2017-07-07T16:13:09.761Z,45.36
2017-07-07T16:14:09.769Z,45.55
2017-07-07T16:15:09.794Z,45.16
2017-07-07T16:16:09.779Z,45.06
2017-07-07T16:17:09.465Z,45.45
2017-07-07T16:18:09.791Z,45.65
2017-07-07T16:19:09.799Z,46.14
2017-07-07T16:20:10.260Z,45.84
2017-07-07T16:21:09.820Z,45.94
2017-07-07T16:22:09.824Z,46.23
2017-07-07T16:23:09.511Z,46.72
2017-07-07T16:24:09.840Z,47.89
2017-07-07T16:25:10.326Z,46.82
2017-07-07T16:26:09.534Z,46.82
2017-07-07T16:27:09.861Z,46.72
2017-07-07T16:28:09.554Z,46.53
2017-07-07T16:29:09.878Z,46.92
2017-07-07T16:30:10.479Z,46.72
2017-07-07T16:31:09.587Z,46.53
2017-07-07T16:32:09.907Z,46.72
2017-07-07T16:33:09.914Z,46.82
2017-07-07T16:34:09.917Z,46.62
2017-07-07T16:35:10.375Z,47.89
2017-07-07T16:36:09.617Z,48.55
2017-07-07T16:37:09.948Z,48.94
2017-07-07T16:38:09.951Z,49.24
2017-07-07T16:39:09.955Z,50.02
2017-07-07T16:40:10.276Z,50.68
2017-07-07T16:41:09.971Z,51.56
2017-07-07T16:42:09.979Z,51.76
2017-07-07T16:43:10.013Z,51.76
2017-07-07T16:44:09.997Z,51.43
2017-07-07T16:45:10.523Z,51.53
2017-07-07T16:46:12.065Z,52.31
2017-07-07T16:47:10.022Z,52.61
2017-07-07T16:48:10.024Z,52.58
2017-07-07T16:49:10.039Z,53.27
2017-07-07T16:50:10.653Z,53.36
2017-07-07T16:51:10.050Z,52.68
2017-07-07T16:52:09.743Z,53.36
2017-07-07T16:53:10.073Z,53.46
2017-07-07T16:54:10.082Z,53.56
2017-07-07T16:55:10.621Z,53.46
2017-07-07T16:56:10.084Z,54.11
2017-07-07T16:57:10.094Z,53.83
2017-07-07T16:58:09.778Z,54.02
2017-07-07T16:59:09.784Z,54.11
2017-07-07T17:00:10.759Z,54.5
2017-07-07T17:01:10.850Z,54.31
2017-07-07T17:02:10.126Z,54.8
2017-07-07T17:03:35.971Z,54.38
2017-07-07T17:04:09.820Z,55.09
2017-07-07T17:05:10.724Z,55.77
2017-07-07T17:06:09.843Z,55.65
2017-07-07T17:07:09.841Z,55.65
2017-07-07T17:08:10.174Z,55.46
2017-07-07T17:09:09.853Z,55.46
2017-07-07T17:10:10.205Z,55.65
2017-07-07T17:11:09.868Z,56.14
2017-07-07T17:12:10.196Z,56.23
2017-07-07T17:13:10.200Z,56.52
2017-07-07T17:14:10.213Z,56.33
2017-07-07T17:15:10.675Z,57.11
2017-07-07T17:16:10.221Z,57.7
2017-07-07T17:17:10.226Z,57.57
2017-07-07T17:18:10.234Z,58.15
2017-07-07T17:19:10.239Z,59.23
2017-07-07T17:20:10.834Z,59.72
2017-07-07T17:21:09.930Z,60.46
2017-07-07T17:22:10.261Z,61.34
2017-07-07T17:23:10.273Z,61.44
2017-07-07T17:24:09.950Z,61.11
2017-07-07T17:25:10.917Z,61.21
2017-07-07T17:26:10.288Z,61.41
2017-07-07T17:27:10.293Z,62.22
2017-07-07T17:28:09.977Z,61.54
2017-07-07T17:29:10.315Z,61.73
2017-07-07T17:30:10.937Z,61.6
2017-07-07T17:31:10.317Z,61.24
2017-07-07T17:32:10.327Z,61.51
2017-07-07T17:33:10.329Z,61.83
2017-07-07T17:34:10.353Z,61.41
2017-07-07T17:35:11.209Z,62.19
2017-07-07T17:36:10.352Z,62.19
2017-07-07T17:37:10.356Z,61.8
2017-07-07T17:38:10.364Z,62.38
2017-07-07T17:39:10.369Z,62.77
2017-07-07T17:40:11.259Z,62.67
2017-07-07T17:41:10.382Z,61.9
2017-07-07T17:42:10.415Z,62.12
2017-07-07T17:43:10.072Z,61.05
2017-07-07T17:44:10.404Z,60.27
2017-07-07T17:45:11.147Z,61.05
2017-07-07T17:46:10.091Z,60.85
2017-07-07T17:47:10.977Z,60.85
2017-07-07T17:48:10.439Z,61.15
2017-07-07T17:49:10.561Z,61.18
2017-07-07T17:50:10.847Z,60.49
2017-07-07T17:51:10.448Z,60.2
2017-07-07T17:52:12.254Z,60.3
2017-07-07T17:53:10.144Z,59.52
2017-07-07T17:54:10.466Z,59.81
2017-07-07T17:55:11.017Z,59.62
2017-07-07T17:56:10.512Z,60.39
2017-07-07T17:57:10.167Z,61.96
2017-07-07T17:58:10.493Z,61.69
2017-07-07T17:59:10.193Z,60.49
2017-07-07T18:00:11.317Z,59.42
2017-07-07T18:01:10.521Z,55.55
2017-07-07T18:02:10.219Z,53.28
2017-07-07T18:03:10.539Z,51.53
2017-07-07T18:04:10.540Z,51.53
2017-07-07T18:05:11.489Z,50.87
2017-07-07T18:06:10.225Z,51.36
2017-07-07T18:07:10.549Z,51.46
2017-07-07T18:08:10.559Z,51.46
2017-07-07T18:09:10.576Z,51.14
2017-07-07T18:10:10.737Z,51.17
2017-07-07T18:11:10.260Z,51.34
2017-07-07T18:12:10.633Z,51.82
2017-07-07T18:13:10.652Z,51.92
2017-07-07T18:14:10.300Z,51.73
2017-07-07T18:15:11.631Z,52.31
2017-07-07T18:16:10.617Z,52.67
2017-07-07T18:17:10.635Z,52.28
2017-07-07T18:18:10.641Z,52.58
2017-07-07T18:19:10.739Z,51.99
2017-07-07T18:20:11.601Z,52.48
2017-07-07T18:21:10.329Z,52.45
2017-07-07T18:22:10.333Z,52.75
2017-07-07T18:23:10.336Z,53.04
2017-07-07T18:24:10.674Z,53.23
2017-07-07T18:25:11.262Z,53.42
2017-07-07T18:26:10.353Z,54.6
2017-07-07T18:27:10.681Z,56.05
2017-07-07T18:28:10.739Z,56.15
2017-07-07T18:29:10.697Z,54.69
2017-07-07T18:30:11.071Z,54.99
2017-07-07T18:31:10.392Z,54.21
2017-07-07T18:32:10.395Z,54.69
2017-07-07T18:33:10.725Z,54.5
2017-07-07T18:34:10.405Z,54.21
2017-07-07T18:35:11.211Z,54.11
2017-07-07T18:36:10.419Z,55.76
2017-07-07T18:37:10.746Z,58
2017-07-07T18:38:10.431Z,59.66
2017-07-07T18:39:10.754Z,59.56
2017-07-07T18:40:11.422Z,60.24
2017-07-07T18:41:10.771Z,61.8
2017-07-07T18:42:10.777Z,62.19
2017-07-07T18:43:10.461Z,64.49
2017-07-07T18:44:10.473Z,63.87
2017-07-07T18:45:11.814Z,64.62
2017-07-07T18:46:10.804Z,64.72
2017-07-07T18:47:10.810Z,66.11
2017-07-07T18:48:10.815Z,67.28
2017-07-07T18:49:10.816Z,69.48
2017-07-07T18:50:11.668Z,70.54
2017-07-07T18:51:10.517Z,71.19
2017-07-07T18:52:10.513Z,71.83
2017-07-07T18:53:10.517Z,75.81
2017-07-07T18:54:10.844Z,73.73
2017-07-07T18:55:11.350Z,73.93
2017-07-07T18:56:10.540Z,74.22
2017-07-07T18:57:10.858Z,73.35
2017-07-07T18:58:10.876Z,74.28
2017-07-07T18:59:10.870Z,74.28
2017-07-07T19:00:11.316Z,73.79
2017-07-07T19:01:10.882Z,73.11
2017-07-07T19:02:10.570Z,73.41
2017-07-07T19:03:10.888Z,72.34
2017-07-07T19:04:10.898Z,71.56
2017-07-07T19:05:11.946Z,70.01
2017-07-07T19:06:10.913Z,70.4
2017-07-07T19:07:10.910Z,72.05
2017-07-07T19:08:10.602Z,70.98
2017-07-07T19:09:10.606Z,71.47
2017-07-07T19:10:11.676Z,70.79
2017-07-07T19:11:10.608Z,70.79
2017-07-07T19:12:10.627Z,69.82
2017-07-07T19:13:10.944Z,71.28
2017-07-07T19:14:10.633Z,70.31
2017-07-07T19:15:11.380Z,70.01
2017-07-07T19:16:10.635Z,69.82
2017-07-07T19:17:10.963Z,69.15
2017-07-07T19:18:10.975Z,69.92
2017-07-07T19:19:10.979Z,69.24
2017-07-07T19:20:12.095Z,68.85
2017-07-07T19:21:10.989Z,68.08
2017-07-07T19:22:10.986Z,69.05
2017-07-07T19:23:10.670Z,67.3
2017-07-07T19:24:10.676Z,68.56
2017-07-07T19:25:12.080Z,67.11
2017-07-07T19:26:10.685Z,67.3
2017-07-07T19:27:11.011Z,66.63
2017-07-07T19:28:11.015Z,65.17
2017-07-07T19:29:11.020Z,65.95
2017-07-07T19:30:11.578Z,65.56
2017-07-07T19:31:10.717Z,64.59
2017-07-07T19:32:11.033Z,63.75
2017-07-07T19:33:11.101Z,64.14
2017-07-07T19:34:11.051Z,63.17
2017-07-07T19:35:11.521Z,63.75
2017-07-07T19:36:10.733Z,63.85
2017-07-07T19:37:10.798Z,62.98
2017-07-07T19:38:11.065Z,62.52
2017-07-07T19:39:11.067Z,61.65
2017-07-07T19:40:12.008Z,63.49
2017-07-07T19:41:11.085Z,66.2
2017-07-07T19:42:11.138Z,65.24
2017-07-07T19:43:11.143Z,64.85
2017-07-07T19:44:11.103Z,64.65
2017-07-07T19:45:11.567Z,66.11
2017-07-07T19:46:11.101Z,66.6
2017-07-07T19:47:11.108Z,67.34
2017-07-07T19:48:11.226Z,68.21
2017-07-07T19:49:11.117Z,67.14
2017-07-07T19:50:12.205Z,67.72
2017-07-07T19:51:10.866Z,68.37
2017-07-07T19:52:10.818Z,69.24
2017-07-07T19:53:11.138Z,69.92
2017-07-07T19:54:11.140Z,71.47
2017-07-07T19:55:12.199Z,73.79
2017-07-07T19:56:10.835Z,72.6
2017-07-07T19:57:10.836Z,72.69
2017-07-07T19:58:11.160Z,73.47
2017-07-07T19:59:11.170Z,73.47
2017-07-07T20:00:12.095Z,73.27
2017-07-07T20:01:11.174Z,73.47
2017-07-07T20:02:10.858Z,73.08
2017-07-07T20:03:15.448Z,74.21
2017-07-07T20:04:11.190Z,73.91
2017-07-07T20:05:11.619Z,74.01
2017-07-07T20:06:10.877Z,75.37
2017-07-07T20:07:10.884Z,74.98
2017-07-07T20:08:11.218Z,74.21
2017-07-07T20:09:11.218Z,73.72
2017-07-07T20:10:12.242Z,74.21
2017-07-07T20:11:11.221Z,74.07
2017-07-07T20:12:10.910Z,74.46
2017-07-07T20:13:11.238Z,73.97
2017-07-07T20:14:11.236Z,73.59
2017-07-07T20:15:11.268Z,74.65
2017-07-07T20:16:11.009Z,74.94
2017-07-07T20:17:11.259Z,75.62
2017-07-07T20:18:11.275Z,76.84
2017-07-07T20:19:10.936Z,77.9
2017-07-07T20:20:11.706Z,77.61
2017-07-07T20:21:11.271Z,78
2017-07-07T20:22:11.320Z,77.9
2017-07-07T20:23:11.324Z,78.48
2017-07-07T20:24:11.279Z,77.03
2017-07-07T20:25:12.288Z,76.45
2017-07-07T20:26:11.288Z,76.64
2017-07-07T20:27:10.981Z,76.55
2017-07-07T20:28:10.982Z,77.13
2017-07-07T20:29:11.346Z,76.55
2017-07-07T20:30:11.659Z,76.45
2017-07-07T20:31:10.989Z,76.45
2017-07-07T20:32:10.990Z,76.26
2017-07-07T20:33:11.317Z,76.16
2017-07-07T20:34:11.019Z,76.64
2017-07-07T20:35:12.526Z,75.97
2017-07-07T20:36:11.328Z,76.26
2017-07-07T20:37:11.014Z,76.06
2017-07-07T20:38:11.017Z,76.84
2017-07-07T20:39:11.345Z,77.03
2017-07-07T20:40:12.492Z,75.97
2017-07-07T20:41:11.366Z,75.97
2017-07-07T20:42:11.364Z,76.61
2017-07-07T20:43:11.364Z,77.13
2017-07-07T20:44:11.370Z,77.03
2017-07-07T20:45:12.312Z,76.74
2017-07-07T20:46:11.054Z,77.42
2017-07-07T20:47:11.054Z,77.03
2017-07-07T20:48:11.058Z,77.22
2017-07-07T20:49:11.378Z,76.22
2017-07-07T20:50:11.985Z,76.74
2017-07-07T20:51:11.398Z,76.55
2017-07-07T20:52:11.397Z,76.45
2017-07-07T20:53:11.406Z,76.06
2017-07-07T20:54:11.403Z,76.64
2017-07-07T20:55:12.575Z,76.45
2017-07-07T20:56:11.414Z,76.16
2017-07-07T20:57:11.426Z,76.12
2017-07-07T20:58:11.423Z,76.35
2017-07-07T20:59:11.497Z,76.12
2017-07-07T21:00:12.341Z,76.22
2017-07-07T21:01:11.433Z,76.55
2017-07-07T21:02:11.437Z,77.19
2017-07-07T21:03:11.447Z,77.57
2017-07-07T21:04:11.447Z,77
2017-07-07T21:05:12.467Z,77
2017-07-07T21:06:11.134Z,77.67
2017-07-07T21:07:11.138Z,77.96
2017-07-07T21:08:11.468Z,77.67
2017-07-07T21:09:11.469Z,78.06
2017-07-07T21:10:12.147Z,78.15
